createdAt,value
2023-05-06T00:02:09.549Z,5.70
2023-05-06T00:04:40.634Z,5.30
2023-05-06T00:07:10.743Z,4.80
2023-05-06T00:09:40.909Z,5.20
2023-05-06T00:12:10.947Z,4.60
2023-05-06T00:14:41.147Z,4.90
2023-05-06T00:17:11.398Z,4.60
2023-05-06T00:19:42.015Z,5.00
2023-05-06T00:22:12.359Z,4.80
2023-05-06T00:24:42.253Z,5.40
2023-05-06T00:27:12.527Z,5.20
2023-05-06T00:29:55.661Z,4.60
2023-05-06T00:32:25.637Z,5.20
2023-05-06T00:34:55.537Z,5.10
2023-05-06T00:37:25.740Z,4.50
2023-05-06T00:39:55.867Z,4.30
2023-05-06T00:42:25.917Z,4.80
2023-05-06T00:44:55.751Z,4.80
2023-05-06T00:47:26.467Z,4.40
2023-05-06T00:49:56.563Z,5.00
2023-05-06T00:52:26.496Z,4.50
2023-05-06T00:54:57.349Z,4.70
2023-05-06T00:57:27.416Z,4.90
2023-05-06T00:59:57.415Z,4.50
2023-05-06T01:02:39.613Z,5.60
2023-05-06T01:05:18.321Z,4.60
2023-05-06T01:07:59.873Z,5.00
2023-05-06T01:10:37.804Z,5.30
2023-05-06T01:13:15.425Z,4.80
2023-05-06T01:15:48.032Z,5.40
2023-05-06T01:18:22.270Z,5.40
2023-05-06T01:20:53.981Z,4.80
2023-05-06T01:23:23.759Z,4.80
2023-05-06T01:25:53.985Z,5.20
2023-05-06T01:28:23.951Z,4.90
2023-05-06T01:31:01.525Z,4.70
2023-05-06T01:33:38.633Z,4.70
2023-05-06T01:36:16.569Z,5.40
2023-05-06T01:38:53.378Z,5.70
2023-05-06T01:41:25.413Z,5.10
2023-05-06T01:43:55.592Z,4.90
2023-05-06T01:46:29.102Z,5.10
2023-05-06T01:49:05.422Z,5.20
2023-05-06T01:51:35.813Z,4.90
2023-05-06T01:54:06.205Z,5.30
2023-05-06T01:56:36.398Z,5.10
2023-05-06T01:59:06.943Z,5.00
2023-05-06T02:01:37.056Z,4.50
2023-05-06T02:04:07.353Z,5.20
2023-05-06T02:06:37.492Z,5.70
2023-05-06T02:09:08.150Z,4.70
2023-05-06T02:11:42.967Z,5.30
2023-05-06T02:14:13.149Z,5.00
2023-05-06T02:16:43.264Z,5.10
2023-05-06T02:19:13.362Z,5.60
2023-05-06T02:21:43.312Z,4.90
2023-05-06T02:24:15.511Z,5.50
2023-05-06T02:26:45.384Z,5.50
2023-05-06T02:29:15.291Z,5.20
2023-05-06T02:31:45.282Z,5.30
2023-05-06T02:34:15.147Z,6.00
2023-05-06T02:36:46.401Z,4.40
2023-05-06T02:39:16.394Z,4.70
2023-05-06T02:41:46.193Z,5.50
2023-05-06T02:44:16.121Z,5.90
2023-05-06T02:46:46.132Z,5.60
2023-05-06T02:49:16.172Z,5.30
2023-05-06T02:51:46.776Z,5.00
2023-05-06T02:54:16.607Z,4.90
2023-05-06T02:56:46.561Z,5.10
2023-05-06T02:59:17.428Z,5.70
2023-05-06T03:01:47.945Z,5.00
2023-05-06T03:04:18.251Z,5.00
2023-05-06T03:06:48.202Z,5.90
2023-05-06T03:09:18.260Z,5.40
2023-05-06T03:11:48.559Z,5.90
2023-05-06T03:14:19.013Z,5.20
2023-05-06T03:16:48.891Z,5.70
2023-05-06T03:19:19.345Z,5.90
2023-05-06T03:21:49.331Z,5.40
2023-05-06T03:24:21.322Z,5.70
2023-05-06T03:26:51.684Z,5.60
2023-05-06T03:29:22.695Z,5.70
2023-05-06T03:31:52.784Z,5.40
2023-05-06T03:34:25.149Z,5.00
2023-05-06T03:36:55.148Z,5.10
2023-05-06T03:39:25.221Z,5.60
2023-05-06T03:41:56.069Z,6.40
2023-05-06T03:44:26.646Z,5.20
2023-05-06T03:46:56.518Z,5.80
2023-05-06T03:49:26.735Z,5.20
2023-05-06T03:51:56.799Z,4.90
2023-05-06T03:54:30.839Z,5.00
2023-05-06T03:57:01.070Z,5.70
2023-05-06T03:59:31.360Z,4.90
2023-05-06T04:02:01.937Z,5.30
2023-05-06T04:04:32.591Z,4.80
2023-05-06T04:07:03.733Z,5.60
2023-05-06T04:09:34.364Z,5.40
2023-05-06T04:12:07.404Z,5.20
2023-05-06T04:14:38.149Z,5.50
2023-05-06T04:17:08.679Z,6.10
2023-05-06T04:19:38.970Z,5.50
2023-05-06T04:22:08.974Z,5.40
2023-05-06T04:24:41.509Z,5.70
2023-05-06T04:27:12.516Z,5.70
2023-05-06T04:29:46.658Z,6.10
2023-05-06T04:32:17.707Z,5.20
2023-05-06T04:34:48.399Z,5.60
2023-05-06T04:37:22.820Z,5.10
2023-05-06T04:40:05.676Z,6.80
2023-05-06T04:42:36.356Z,5.40
2023-05-06T04:45:13.037Z,5.50
2023-05-06T04:47:47.132Z,5.60
2023-05-06T04:50:17.499Z,4.90
2023-05-06T04:52:47.572Z,5.80
2023-05-06T04:55:18.868Z,5.80
2023-05-06T04:57:54.188Z,5.40
2023-05-06T05:00:25.918Z,5.50
2023-05-06T05:02:57.032Z,5.70
2023-05-06T05:05:28.281Z,5.60
2023-05-06T05:07:58.796Z,5.50
2023-05-06T05:10:30.046Z,5.40
2023-05-06T05:13:00.635Z,5.70
2023-05-06T05:15:31.606Z,5.40
2023-05-06T05:18:01.752Z,5.50
2023-05-06T05:20:32.502Z,5.80
2023-05-06T05:23:03.846Z,5.60
2023-05-06T05:25:35.233Z,6.00
2023-05-06T05:28:05.302Z,6.00
2023-05-06T05:30:35.996Z,6.30
2023-05-06T05:33:06.059Z,5.20
2023-05-06T05:35:36.702Z,6.00
2023-05-06T05:38:07.309Z,5.90
2023-05-06T05:40:38.999Z,5.40
2023-05-06T05:43:09.550Z,5.70
2023-05-06T05:45:41.160Z,5.50
2023-05-06T05:48:12.261Z,6.00
2023-05-06T05:50:42.375Z,5.30
2023-05-06T05:53:13.042Z,5.80
2023-05-06T05:55:44.521Z,5.40
2023-05-06T05:58:14.631Z,5.00
2023-05-06T06:00:45.454Z,6.40
2023-05-06T06:03:15.909Z,5.20
2023-05-06T06:05:48.940Z,5.00
2023-05-06T06:08:19.810Z,5.00
2023-05-06T06:10:50.455Z,5.20
2023-05-06T06:13:25.259Z,5.10
2023-05-06T06:15:57.463Z,5.40
2023-05-06T06:18:27.707Z,5.60
2023-05-06T06:20:57.891Z,5.30
2023-05-06T06:23:27.993Z,5.40
2023-05-06T06:25:58.538Z,5.10
2023-05-06T06:28:28.338Z,5.00
2023-05-06T06:30:58.489Z,5.70
2023-05-06T06:33:29.212Z,6.00
2023-05-06T06:35:59.177Z,5.40
2023-05-06T06:38:29.323Z,5.90
2023-05-06T06:40:59.150Z,6.00
2023-05-06T06:43:29.166Z,5.40
2023-05-06T06:48:32.068Z,5.10
2023-05-06T06:51:02.019Z,5.90
2023-05-06T06:53:32.641Z,5.20
2023-05-06T06:56:02.656Z,5.10
2023-05-06T06:58:34.789Z,5.70
2023-05-06T07:01:05.376Z,5.90
2023-05-06T07:03:35.595Z,5.40
2023-05-06T07:06:06.422Z,6.40
2023-05-06T07:08:37.715Z,5.50
2023-05-06T07:11:07.823Z,5.50
2023-05-06T07:13:38.514Z,5.30
2023-05-06T07:16:08.537Z,5.50
2023-05-06T07:18:38.428Z,5.20
2023-05-06T07:21:08.469Z,5.40
2023-05-06T07:23:38.353Z,5.40
2023-05-06T07:26:09.232Z,5.50
2023-05-06T07:28:39.189Z,5.30
2023-05-06T07:31:09.279Z,5.30
2023-05-06T07:33:40.618Z,4.80
2023-05-06T07:36:10.954Z,5.20
2023-05-06T07:38:44.208Z,4.70
2023-05-06T07:41:14.676Z,5.20
2023-05-06T07:43:45.608Z,5.50
2023-05-06T07:46:15.538Z,5.40
2023-05-06T07:48:45.785Z,6.00
2023-05-06T07:51:17.891Z,5.60
2023-05-06T07:53:48.306Z,5.00
2023-05-06T07:56:19.307Z,5.90
2023-05-06T07:58:49.561Z,6.10
2023-05-06T08:01:19.718Z,5.60
2023-05-06T08:03:52.764Z,5.70
2023-05-06T08:06:23.177Z,6.00
2023-05-06T08:08:53.530Z,5.50
2023-05-06T08:11:23.995Z,6.20
2023-05-06T08:13:54.235Z,5.80
2023-05-06T08:16:25.818Z,5.90
2023-05-06T08:18:56.212Z,5.50
2023-05-06T08:21:26.753Z,5.40
2023-05-06T08:23:56.870Z,5.70
2023-05-06T08:26:27.208Z,6.60
2023-05-06T08:28:59.112Z,6.50
2023-05-06T08:31:29.883Z,6.20
2023-05-06T08:34:00.431Z,5.80
2023-05-06T08:36:30.632Z,5.60
2023-05-06T08:39:00.583Z,6.30
2023-05-06T08:41:33.193Z,5.50
2023-05-06T08:44:03.853Z,6.30
2023-05-06T08:46:33.885Z,5.70
2023-05-06T08:49:03.968Z,5.60
2023-05-06T08:51:34.022Z,6.00
2023-05-06T08:54:04.888Z,6.10
2023-05-06T08:56:37.007Z,5.70
2023-05-06T08:59:08.936Z,6.20
2023-05-06T09:01:39.069Z,6.20
2023-05-06T09:04:10.642Z,6.20
2023-05-06T09:06:41.504Z,5.80
2023-05-06T09:09:12.923Z,6.20
2023-05-06T09:11:43.177Z,6.50
2023-05-06T09:14:15.613Z,6.50
2023-05-06T09:16:47.248Z,5.80
2023-05-06T09:19:18.129Z,6.00
2023-05-06T09:21:49.860Z,5.00
2023-05-06T09:24:22.779Z,6.50
2023-05-06T09:26:55.425Z,6.10
2023-05-06T09:29:25.696Z,6.10
2023-05-06T09:31:56.124Z,6.00
2023-05-06T09:34:27.838Z,6.50
2023-05-06T09:36:58.475Z,7.10
2023-05-06T09:39:28.898Z,6.00
2023-05-06T09:41:59.845Z,5.90
2023-05-06T09:44:30.739Z,6.50
2023-05-06T09:47:02.055Z,6.60
2023-05-06T09:49:32.094Z,5.80
2023-05-06T09:52:02.177Z,6.20
2023-05-06T09:54:33.702Z,6.30
2023-05-06T09:57:05.136Z,5.80
2023-05-06T09:59:36.491Z,6.00
2023-05-06T10:02:08.582Z,5.90
2023-05-06T10:04:40.992Z,5.20
2023-05-06T10:07:12.517Z,5.40
2023-05-06T10:09:43.485Z,6.20
2023-05-06T10:12:15.709Z,5.80
2023-05-06T10:14:45.938Z,5.80
2023-05-06T10:17:19.024Z,6.10
2023-05-06T10:19:51.624Z,6.30
2023-05-06T10:22:31.249Z,6.00
2023-05-06T10:25:05.757Z,6.10
2023-05-06T10:27:40.395Z,5.30
2023-05-06T10:30:14.730Z,6.30
2023-05-06T10:32:46.451Z,6.20
2023-05-06T10:35:27.233Z,5.70
2023-05-06T10:38:03.883Z,6.20
2023-05-06T10:40:34.248Z,6.50
2023-05-06T10:43:29.082Z,5.30
2023-05-06T10:46:04.128Z,6.40
2023-05-06T10:48:35.330Z,5.70
2023-05-06T10:51:28.307Z,6.30
2023-05-06T10:54:06.515Z,6.00
2023-05-06T10:56:37.786Z,6.10
2023-05-06T10:59:09.726Z,6.20
2023-05-06T11:01:42.387Z,5.40
2023-05-06T11:04:15.591Z,6.10
2023-05-06T11:06:48.206Z,6.20
2023-05-06T11:09:22.195Z,5.90
2023-05-06T11:12:00.136Z,5.30
2023-05-06T11:14:35.208Z,6.20
2023-05-06T11:17:06.891Z,5.80
2023-05-06T11:19:38.267Z,6.20
2023-05-06T11:22:08.701Z,5.70
2023-05-06T11:24:42.080Z,5.60
2023-05-06T11:27:19.432Z,6.40
2023-05-06T11:29:49.203Z,6.50
2023-05-06T11:32:25.926Z,6.60
2023-05-06T11:35:44.335Z,6.10
2023-05-06T11:39:24.549Z,6.00
2023-05-06T11:43:05.726Z,6.20
2023-05-06T11:49:16.419Z,7.10
2023-05-06T11:51:58.178Z,7.50
2023-05-06T11:54:29.249Z,8.50
2023-05-06T11:56:59.020Z,7.60
2023-05-06T12:00:26.048Z,7.10
2023-05-06T12:03:52.041Z,7.80
2023-05-06T12:14:36.191Z,7.30
2023-05-06T12:17:18.221Z,7.40
2023-05-06T12:19:52.401Z,7.10
2023-05-06T12:22:31.532Z,8.00
2023-05-06T12:25:15.184Z,7.80
2023-05-06T12:27:45.224Z,8.70
2023-05-06T12:30:15.868Z,8.80
2023-05-06T12:33:49.277Z,45.30
2023-05-06T12:37:54.116Z,21.90
2023-05-06T12:41:35.760Z,10.50
2023-05-06T12:45:16.747Z,14.70
2023-05-06T12:48:49.590Z,25.80
2023-05-06T12:59:39.622Z,9.80
2023-05-06T13:02:09.962Z,8.20
2023-05-06T13:04:40.472Z,9.50
2023-05-06T13:07:10.429Z,9.80
2023-05-06T13:09:40.476Z,9.70
2023-05-06T13:12:10.629Z,8.80
2023-05-06T13:14:40.693Z,10.40
2023-05-06T13:17:10.819Z,10.00
2023-05-06T13:19:41.011Z,10.50
2023-05-06T13:22:11.093Z,10.20
2023-05-06T13:24:41.209Z,10.90
2023-05-06T13:27:11.339Z,10.30
2023-05-06T13:29:41.458Z,8.80
2023-05-06T13:32:14.022Z,9.50
2023-05-06T13:34:44.189Z,8.50
2023-05-06T13:37:14.370Z,9.70
2023-05-06T13:39:44.370Z,8.70
2023-05-06T13:42:14.476Z,9.20
2023-05-06T13:44:44.580Z,10.10
2023-05-06T13:47:15.130Z,10.50
2023-05-06T13:49:45.515Z,9.70
2023-05-06T13:52:15.561Z,9.70
2023-05-06T13:54:45.933Z,10.00
2023-05-06T13:57:16.036Z,9.80
2023-05-06T13:59:49.233Z,8.80
2023-05-06T14:02:19.586Z,9.00
2023-05-06T14:04:49.653Z,8.10
2023-05-06T14:07:19.997Z,8.90
2023-05-06T14:13:31.370Z,8.00
2023-05-06T14:16:01.365Z,8.60
2023-05-06T14:18:34.828Z,7.80
2023-05-06T14:21:05.656Z,7.60
2023-05-06T14:23:36.258Z,8.40
2023-05-06T14:26:06.267Z,8.70
2023-05-06T14:28:36.178Z,16.10
2023-05-06T14:39:02.703Z,15.30
2023-05-06T14:42:22.350Z,10.50
2023-05-06T14:45:45.016Z,6.50
2023-05-06T14:49:12.661Z,7.40
2023-05-06T14:52:54.997Z,5.90
2023-05-06T14:55:59.370Z,5.40
2023-05-06T14:58:29.251Z,6.20
2023-05-06T15:00:59.368Z,5.50
2023-05-06T15:03:29.365Z,8.30
2023-05-06T15:05:59.424Z,6.20
2023-05-06T15:08:29.375Z,5.70
2023-05-06T15:11:00.190Z,5.20
2023-05-06T15:13:31.079Z,5.20
2023-05-06T15:16:01.214Z,5.60
2023-05-06T15:18:31.248Z,5.70
2023-05-06T15:21:01.343Z,6.00
2023-05-06T15:23:32.586Z,5.90
2023-05-06T15:26:02.454Z,5.80
2023-05-06T15:28:34.342Z,6.00
2023-05-06T15:31:04.512Z,6.10
2023-05-06T15:33:34.540Z,7.30
2023-05-06T15:36:04.855Z,7.50
2023-05-06T15:38:59.914Z,8.30
2023-05-06T15:41:32.149Z,9.30
2023-05-06T15:44:06.509Z,9.70
2023-05-06T15:46:40.101Z,9.10
2023-05-06T15:49:45.622Z,10.80
2023-05-06T15:52:04.365Z,9.50
2023-05-06T15:54:37.326Z,10.40
2023-05-06T15:57:10.240Z,9.90
2023-05-06T15:59:44.273Z,13.90
2023-05-06T16:04:53.165Z,10.40
2023-05-06T16:07:25.324Z,12.60
2023-05-06T16:09:58.039Z,13.80
2023-05-06T16:12:32.557Z,16.50
2023-05-06T16:15:04.429Z,17.10
2023-05-06T16:17:37.628Z,17.10
2023-05-06T16:20:12.914Z,18.90
2023-05-06T16:22:52.522Z,21.10
2023-05-06T16:25:23.431Z,20.60
2023-05-06T16:27:56.046Z,20.10
2023-05-06T16:30:26.794Z,20.00
2023-05-06T16:32:57.117Z,20.80
2023-05-06T16:35:31.202Z,20.00
2023-05-06T16:38:07.889Z,21.30
2023-05-06T16:40:48.415Z,19.90
2023-05-06T16:43:26.159Z,19.60
2023-05-06T16:45:58.586Z,19.60
2023-05-06T16:48:31.688Z,21.80
2023-05-06T16:53:35.802Z,21.40
2023-05-06T16:56:08.823Z,20.90
2023-05-06T16:58:40.684Z,21.60
2023-05-06T17:01:12.102Z,22.10
2023-05-06T17:03:44.842Z,20.30
2023-05-06T17:06:19.730Z,29.80
2023-05-06T17:08:51.389Z,19.50
2023-05-06T17:11:21.353Z,14.60
2023-05-06T17:13:55.242Z,15.70
2023-05-06T17:16:25.554Z,10.70
2023-05-06T17:18:56.768Z,8.50
2023-05-06T17:21:27.523Z,7.90
2023-05-06T17:24:01.463Z,7.60
2023-05-06T17:26:33.991Z,7.50
2023-05-06T17:29:06.074Z,8.10
2023-05-06T17:31:38.201Z,11.20
2023-05-06T17:34:10.035Z,7.40
2023-05-06T17:36:42.861Z,6.60
2023-05-06T17:39:15.832Z,7.00
2023-05-06T17:41:46.363Z,6.70
2023-05-06T17:44:17.900Z,8.00
2023-05-06T17:46:49.770Z,8.10
2023-05-06T17:49:23.279Z,7.80
2023-05-06T17:54:31.870Z,7.90
2023-05-06T17:57:03.467Z,8.70
2023-05-06T17:59:35.550Z,8.00
2023-05-06T18:02:09.977Z,8.80
2023-05-06T18:04:41.760Z,9.30
2023-05-06T18:07:11.974Z,9.70
2023-05-06T18:09:42.059Z,9.90
2023-05-06T18:12:12.077Z,9.30
2023-05-06T18:14:42.269Z,9.90
2023-05-06T18:17:12.208Z,10.70
2023-05-06T18:19:42.807Z,11.00
2023-05-06T18:22:12.807Z,10.10
2023-05-06T18:24:42.829Z,10.20
2023-05-06T18:27:13.051Z,10.00
2023-05-06T18:29:43.039Z,9.10
2023-05-06T18:32:13.075Z,10.30
2023-05-06T18:34:43.534Z,10.60
2023-05-06T18:37:14.734Z,12.20
2023-05-06T18:39:45.798Z,12.10
2023-05-06T18:42:17.025Z,12.40
2023-05-06T18:44:50.707Z,10.30
2023-05-06T18:47:21.249Z,9.80
2023-05-06T18:49:53.019Z,10.20
2023-05-06T18:52:23.528Z,9.20
2023-05-06T18:54:54.322Z,9.20
2023-05-06T18:57:26.080Z,9.40
2023-05-06T18:59:56.815Z,9.10
2023-05-06T19:02:26.884Z,10.90
2023-05-06T19:04:58.188Z,9.90
2023-05-06T19:07:28.155Z,10.50
2023-05-06T19:09:59.137Z,11.10
2023-05-06T19:12:29.916Z,11.40
2023-05-06T19:15:00.130Z,12.00
2023-05-06T19:17:30.510Z,11.20
2023-05-06T19:20:04.857Z,11.10
2023-05-06T19:22:36.538Z,11.20
2023-05-06T19:25:09.709Z,11.20
2023-05-06T19:27:39.967Z,12.20
2023-05-06T19:30:11.884Z,12.00
2023-05-06T19:35:16.373Z,11.00
2023-05-06T19:37:46.664Z,11.00
2023-05-06T19:40:18.544Z,11.60
2023-05-06T19:42:54.502Z,12.90
2023-05-06T19:45:24.432Z,12.10
2023-05-06T19:47:54.368Z,12.90
2023-05-06T19:50:24.688Z,14.00
2023-05-06T19:52:54.943Z,14.10
2023-05-06T19:55:29.917Z,22.50
2023-05-06T19:58:05.686Z,21.90
2023-05-06T20:00:42.244Z,18.20
2023-05-06T20:03:12.764Z,17.70
2023-05-06T20:05:43.081Z,16.30
2023-05-06T20:08:13.462Z,16.70
2023-05-06T20:10:45.374Z,16.40
2023-05-06T20:13:17.398Z,16.90
2023-05-06T20:15:48.276Z,16.60
2023-05-06T20:18:18.242Z,21.90
2023-05-06T20:20:48.428Z,23.40
2023-05-06T20:23:18.858Z,21.40
2023-05-06T20:25:48.868Z,20.20
2023-05-06T20:28:21.255Z,16.40
2023-05-06T20:31:00.679Z,15.90
2023-05-06T20:33:31.497Z,13.90
2023-05-06T20:36:01.872Z,14.60
2023-05-06T20:38:32.007Z,12.40
2023-05-06T20:41:02.697Z,13.70
2023-05-06T20:43:34.876Z,12.50
2023-05-06T20:46:05.107Z,11.80
2023-05-06T20:48:35.000Z,10.60
2023-05-06T20:51:05.072Z,11.10
2023-05-06T20:53:35.080Z,11.70
2023-05-06T20:56:07.080Z,10.60
2023-05-06T20:58:36.935Z,12.90
2023-05-06T21:01:06.794Z,10.80
2023-05-06T21:03:36.894Z,11.10
2023-05-06T21:06:07.045Z,10.70
2023-05-06T21:08:37.039Z,11.70
2023-05-06T21:11:06.977Z,11.40
2023-05-06T21:13:37.013Z,10.40
2023-05-06T21:16:07.708Z,11.00
2023-05-06T21:18:38.086Z,11.50
2023-05-06T21:21:07.970Z,11.40
2023-05-06T21:23:37.839Z,11.10
2023-05-06T21:26:07.748Z,11.10
2023-05-06T21:28:38.175Z,10.80
2023-05-06T21:31:08.633Z,10.20
2023-05-06T21:33:38.467Z,10.40
2023-05-06T21:36:09.257Z,10.20
2023-05-06T21:38:39.502Z,11.50
2023-05-06T21:41:09.484Z,10.90
2023-05-06T21:43:39.618Z,10.70
2023-05-06T21:46:09.540Z,10.00
2023-05-06T21:48:39.665Z,10.90
2023-05-06T21:51:09.447Z,11.00
2023-05-06T21:53:39.608Z,11.10
2023-05-06T21:56:09.429Z,11.30
2023-05-06T21:58:39.359Z,10.80
2023-05-06T22:01:09.352Z,11.60
2023-05-06T22:03:39.654Z,10.80
2023-05-06T22:06:21.962Z,12.40
2023-05-06T22:08:51.931Z,11.60
2023-05-06T22:11:23.552Z,11.40
2023-05-06T22:13:53.412Z,9.80
2023-05-06T22:16:23.440Z,10.60
2023-05-06T22:18:53.721Z,10.60
2023-05-06T22:21:23.675Z,9.90
2023-05-06T22:23:53.752Z,10.50
2023-05-06T22:26:23.990Z,9.40
2023-05-06T22:28:54.110Z,10.00
2023-05-06T22:31:24.347Z,9.70
2023-05-06T22:33:57.323Z,9.80
2023-05-06T22:36:28.868Z,10.10
2023-05-06T22:38:59.097Z,10.60
2023-05-06T22:41:29.775Z,9.80
2023-05-06T22:44:00.910Z,10.60
2023-05-06T22:46:31.294Z,10.20
2023-05-06T22:49:01.433Z,10.70
2023-05-06T22:51:32.919Z,10.20
2023-05-06T22:54:02.998Z,11.50
2023-05-06T22:56:33.123Z,10.40
2023-05-06T22:59:03.416Z,10.30
2023-05-06T23:01:33.742Z,10.60
2023-05-06T23:04:03.890Z,10.80
2023-05-06T23:06:33.889Z,11.20
2023-05-06T23:09:05.308Z,11.50
2023-05-06T23:11:35.338Z,10.20
2023-05-06T23:14:06.344Z,8.70
2023-05-06T23:16:36.452Z,9.50
2023-05-06T23:19:06.384Z,8.70
2023-05-06T23:21:36.186Z,8.10
2023-05-06T23:24:07.068Z,7.20
2023-05-06T23:26:37.149Z,6.80
2023-05-06T23:29:07.213Z,7.00
2023-05-06T23:31:37.152Z,6.90
2023-05-06T23:34:07.127Z,7.20
2023-05-06T23:36:37.115Z,6.20
2023-05-06T23:39:07.911Z,6.30
2023-05-06T23:41:37.868Z,6.20
2023-05-06T23:44:07.743Z,6.20
2023-05-06T23:46:37.606Z,6.50
2023-05-06T23:49:07.682Z,5.30
2023-05-06T23:51:37.514Z,6.30
2023-05-06T23:54:07.475Z,6.60
2023-05-06T23:56:37.501Z,6.90
2023-05-06T23:59:07.507Z,6.20
